Time,TemperatureF,DewpointF,PressureIn,WindDirection,WindDirectionDegrees,WindSpeedMPH,WindSpeedGustMPH,Humidity,HourlyPrecipIn,Conditions,Clouds,dailyrainin,SolarRadiationWatts/m^2,SoftwareType,DateUTC
2013-07-29 00:04:00,74.8,73.0,30.07,SSE,161,1.0,4.0,94,0.00,,,0.00,0,weatherlink.com 1.10,2013-07-29 04:04:00,
2013-07-29 00:19:00,74.7,73.0,30.07,SE,145,0.0,1.0,94,0.00,,,0.00,0,weatherlink.com 1.10,2013-07-29 04:19:00,
2013-07-29 00:34:00,74.5,73.0,30.07,SE,145,0.0,0.0,94,0.00,,,0.00,0,weatherlink.com 1.10,2013-07-29 04:34:00,
2013-07-29 00:49:00,74.3,73.0,30.07,SE,145,0.0,0.0,95,0.00,,,0.00,0,weatherlink.com 1.10,2013-07-29 04:49:00,
2013-07-29 01:04:00,74.5,73.0,30.06,SSE,147,0.0,2.0,95,0.00,,,0.00,0,weatherlink.com 1.10,2013-07-29 05:04:00,
2013-07-29 01:19:00,74.8,73.0,30.06,SSE,147,0.0,0.0,95,0.00,,,0.00,0,weatherlink.com 1.10,2013-07-29 05:19:00,
2013-07-29 01:34:00,74.9,73.0,30.06,SSE,147,1.0,2.0,95,0.00,,,0.00,0,weatherlink.com 1.10,2013-07-29 05:34:00,
2013-07-29 01:49:00,74.9,73.0,30.06,SSE,147,0.0,0.0,95,0.00,,,0.00,0,weatherlink.com 1.10,2013-07-29 05:49:00,
2013-07-29 02:04:00,74.6,73.0,30.05,SSE,147,0.0,0.0,95,0.00,,,0.00,0,weatherlink.com 1.10,2013-07-29 06:04:00,
2013-07-29 02:19:00,74.3,73.0,30.05,SSE,147,0.0,0.0,95,0.00,,,0.00,0,weatherlink.com 1.10,2013-07-29 06:19:00,
2013-07-29 02:34:00,74.1,73.0,30.05,SSE,147,0.0,0.0,95,0.00,,,0.00,0,weatherlink.com 1.10,2013-07-29 06:34:00,
2013-07-29 02:49:00,73.8,73.0,30.05,SSE,147,0.0,0.0,96,0.00,,,0.00,0,weatherlink.com 1.10,2013-07-29 06:49:00,
2013-07-29 03:04:00,73.8,73.0,30.04,SSE,147,0.0,1.0,96,0.00,,,0.00,0,weatherlink.com 1.10,2013-07-29 07:04:00,
2013-07-29 03:19:00,73.7,73.0,30.04,SSE,147,0.0,0.0,96,0.00,,,0.00,0,weatherlink.com 1.10,2013-07-29 07:19:00,
2013-07-29 03:34:00,73.4,72.0,30.04,SSE,147,0.0,0.0,96,0.00,,,0.00,0,weatherlink.com 1.10,2013-07-29 07:34:00,
2013-07-29 03:49:00,73.3,72.0,30.04,SSE,147,0.0,0.0,96,0.00,,,0.00,0,weatherlink.com 1.10,2013-07-29 07:49:00,
2013-07-29 04:04:00,73.7,73.0,30.03,SSE,147,0.0,0.0,97,0.00,,,0.00,0,weatherlink.com 1.10,2013-07-29 08:04:00,
2013-07-29 04:19:00,73.7,73.0,30.03,SSE,147,0.0,0.0,97,0.00,,,0.00,0,weatherlink.com 1.10,2013-07-29 08:19:00,
2013-07-29 04:34:00,73.9,73.0,30.03,SSE,147,0.0,2.0,97,0.00,,,0.00,0,weatherlink.com 1.10,2013-07-29 08:34:00,
2013-07-29 04:49:00,73.9,73.0,30.04,SSE,147,0.0,1.0,96,0.00,,,0.00,0,weatherlink.com 1.10,2013-07-29 08:49:00,
2013-07-29 05:04:00,73.5,72.0,30.04,SSE,147,0.0,0.0,96,0.00,,,0.00,0,weatherlink.com 1.10,2013-07-29 09:04:00,
2013-07-29 05:19:00,73.3,72.0,30.05,SSE,147,0.0,0.0,96,0.00,,,0.00,0,weatherlink.com 1.10,2013-07-29 09:19:00,
2013-07-29 05:34:00,73.3,72.0,30.05,SSE,147,0.0,0.0,97,0.00,,,0.00,0,weatherlink.com 1.10,2013-07-29 09:34:00,
2013-07-29 05:49:00,73.0,72.0,30.05,SSE,147,0.0,0.0,97,0.00,,,0.00,0,weatherlink.com 1.10,2013-07-29 09:49:00,
2013-07-29 06:04:00,73.0,72.0,30.05,SSE,147,0.0,0.0,97,0.00,,,0.00,0,weatherlink.com 1.10,2013-07-29 10:04:00,
2013-07-29 06:19:00,72.8,72.0,30.06,SSE,147,0.0,0.0,97,0.00,,,0.00,0,weatherlink.com 1.10,2013-07-29 10:19:00,
2013-07-29 06:34:00,73.1,72.0,30.07,SSE,147,0.0,1.0,97,0.00,,,0.00,0,weatherlink.com 1.10,2013-07-29 10:34:00,
2013-07-29 06:49:00,72.9,72.0,30.07,WSW,252,0.0,1.0,97,0.00,,,0.00,0,weatherlink.com 1.10,2013-07-29 10:49:00,
2013-07-29 07:20:00,72.9,72.0,30.08,WSW,252,0.0,0.0,97,0.00,,,0.00,32,weatherlink.com 1.10,2013-07-29 11:20:00,
2013-07-29 07:50:00,74.4,74.0,30.09,West,266,0.0,1.0,98,0.00,,,0.00,74,weatherlink.com 1.10,2013-07-29 11:50:00,
2013-07-29 08:05:00,75.0,74.0,30.10,West,266,1.0,2.0,98,0.00,,,0.00,53,weatherlink.com 1.10,2013-07-29 12:05:00,
2013-07-29 08:35:00,76.3,75.0,30.11,West,266,0.0,2.0,96,0.00,,,0.00,209,weatherlink.com 1.10,2013-07-29 12:35:00,
2013-07-29 08:50:00,77.7,76.0,30.11,West,266,1.0,1.0,94,0.00,,,0.00,316,weatherlink.com 1.10,2013-07-29 12:50:00,
2013-07-29 09:05:00,78.6,76.0,30.11,West,266,0.0,2.0,91,0.00,,,0.00,371,weatherlink.com 1.10,2013-07-29 13:05:00,
2013-07-29 09:20:00,80.3,76.0,30.12,South,184,0.0,3.0,87,0.00,,,0.00,434,weatherlink.com 1.10,2013-07-29 13:20:00,
2013-07-29 09:35:00,81.8,77.0,30.12,SE,136,0.0,2.0,84,0.00,,,0.00,490,weatherlink.com 1.10,2013-07-29 13:35:00,
2013-07-29 09:50:00,83.5,78.0,30.12,ESE,108,1.0,2.0,82,0.00,,,0.00,545,weatherlink.com 1.10,2013-07-29 13:50:00,
2013-07-29 10:05:00,85.2,78.0,30.12,ESE,108,0.0,2.0,79,0.00,,,0.00,598,weatherlink.com 1.10,2013-07-29 14:05:00,
2013-07-29 10:35:00,85.6,76.0,30.13,NE,49,0.0,2.0,72,0.00,,,0.00,710,weatherlink.com 1.10,2013-07-29 14:35:00,
2013-07-29 10:50:00,87.1,77.0,30.13,NNE,20,2.0,4.0,72,0.00,,,0.00,768,weatherlink.com 1.10,2013-07-29 14:50:00,
2013-07-29 11:21:00,88.7,77.0,30.13,WSW,254,2.0,3.0,69,0.00,,,0.00,898,weatherlink.com 1.10,2013-07-29 15:21:00,
2013-07-29 11:36:00,87.6,76.0,30.14,West,263,1.0,6.0,69,0.00,,,0.00,197,weatherlink.com 1.10,2013-07-29 15:36:00,
2013-07-29 11:51:00,86.6,77.0,30.13,WNW,303,0.0,7.0,73,0.00,,,0.00,891,weatherlink.com 1.10,2013-07-29 15:51:00,
2013-07-29 12:06:00,86.6,76.0,30.13,NNW,340,0.0,3.0,70,0.00,,,0.00,956,weatherlink.com 1.10,2013-07-29 16:06:00,
2013-07-29 12:21:00,88.1,77.0,30.12,South,178,0.0,3.0,70,0.00,,,0.00,988,weatherlink.com 1.10,2013-07-29 16:21:00,
2013-07-29 12:51:00,89.3,77.0,30.12,East,96,1.0,4.0,68,0.00,,,0.00,1016,weatherlink.com 1.10,2013-07-29 16:51:00,
2013-07-29 13:06:00,90.6,78.0,30.11,SSE,166,2.0,4.0,66,0.00,,,0.00,1032,weatherlink.com 1.10,2013-07-29 17:06:00,
2013-07-29 14:21:00,92.1,76.0,30.10,ESE,117,0.0,4.0,60,0.00,,,0.00,997,weatherlink.com 1.10,2013-07-29 18:21:00,
2013-07-29 14:51:00,92.1,76.0,30.10,SE,131,2.0,5.0,60,0.00,,,0.00,953,weatherlink.com 1.10,2013-07-29 18:51:00,
2013-07-29 15:21:00,92.5,76.0,30.09,ESE,109,1.0,6.0,58,0.00,,,0.00,868,weatherlink.com 1.10,2013-07-29 19:21:00,
2013-07-29 15:36:00,92.7,76.0,30.08,SSW,203,2.0,7.0,58,0.00,,,0.00,840,weatherlink.com 1.10,2013-07-29 19:36:00,
2013-07-29 15:51:00,92.7,75.0,30.08,ESE,115,0.0,5.0,56,0.00,,,0.00,840,weatherlink.com 1.10,2013-07-29 19:51:00,
2013-07-29 16:06:00,94.0,75.0,30.07,SSW,209,4.0,7.0,55,0.00,,,0.00,802,weatherlink.com 1.10,2013-07-29 20:06:00,
2013-07-29 17:21:00,92.9,75.0,30.06,SE,131,1.0,4.0,56,0.00,,,0.00,534,weatherlink.com 1.10,2013-07-29 21:21:00,
2013-07-29 17:36:00,92.8,74.0,30.07,ESE,118,1.0,4.0,55,0.00,,,0.00,492,weatherlink.com 1.10,2013-07-29 21:36:00,
2013-07-29 17:51:00,92.8,74.0,30.06,SE,140,3.0,4.0,54,0.00,,,0.00,461,weatherlink.com 1.10,2013-07-29 21:51:00,
2013-07-29 18:21:00,84.7,75.0,30.08,ESE,116,4.0,12.0,73,0.00,,,0.00,160,weatherlink.com 1.10,2013-07-29 22:21:00,
2013-07-29 18:36:00,82.7,75.0,30.09,SSE,159,3.0,12.0,77,0.00,,,0.00,149,weatherlink.com 1.10,2013-07-29 22:36:00,
2013-07-29 19:36:00,82.9,76.0,30.10,SSE,153,0.0,9.0,79,0.00,,,0.00,65,weatherlink.com 1.10,2013-07-29 23:36:00,
2013-07-29 19:51:00,82.6,76.0,30.10,SSE,149,3.0,9.0,80,0.00,,,0.00,49,weatherlink.com 1.10,2013-07-29 23:51:00,
2013-07-29 20:21:00,81.9,76.0,30.11,SE,134,1.0,6.0,81,0.00,,,0.00,0,weatherlink.com 1.10,2013-07-30 00:21:00,
2013-07-29 20:36:00,81.6,76.0,30.11,ESE,107,0.0,7.0,82,0.00,,,0.00,0,weatherlink.com 1.10,2013-07-30 00:36:00,
2013-07-29 20:51:00,81.5,76.0,30.12,ESE,122,0.0,4.0,82,0.00,,,0.00,0,weatherlink.com 1.10,2013-07-30 00:51:00,
2013-07-29 21:36:00,80.9,76.0,30.13,SE,130,1.0,4.0,84,0.00,,,0.00,0,weatherlink.com 1.10,2013-07-30 01:36:00,
2013-07-29 21:51:00,80.9,76.0,30.13,ESE,109,1.0,5.0,85,0.00,,,0.00,0,weatherlink.com 1.10,2013-07-30 01:51:00,
2013-07-29 22:06:00,80.9,76.0,30.13,ESE,109,3.0,5.0,86,0.00,,,0.00,0,weatherlink.com 1.10,2013-07-30 02:06:00,
2013-07-29 22:36:00,80.4,76.0,30.15,SE,126,2.0,5.0,87,0.00,,,0.00,0,weatherlink.com 1.10,2013-07-30 02:36:00,
2013-07-29 22:51:00,80.3,77.0,30.15,SE,137,1.0,3.0,88,0.00,,,0.00,0,weatherlink.com 1.10,2013-07-30 02:51:00,
2013-07-29 23:07:00,80.1,77.0,30.16,SE,145,0.0,2.0,89,0.00,,,0.00,0,weatherlink.com 1.10,2013-07-30 03:07:00,
2013-07-29 23:22:00,80.2,77.0,30.16,SSW,195,2.0,3.0,89,0.00,,,0.00,0,weatherlink.com 1.10,2013-07-30 03:22:00,